sensor_id;sensor_type;location;lat;lon;timestamp;P1;durP1;ratioP1;P2;durP2;ratioP2
8825;SDS011;4449;50.872;4.714;2024-03-23T00:53:16;11.65;;;4.95;;
8825;SDS011;4449;50.872;4.714;2024-03-23T00:55:44;9.77;;;4.20;;
8825;SDS011;4449;50.872;4.714;2024-03-23T00:58:10;9.73;;;3.95;;
8825;SDS011;4449;50.872;4.714;2024-03-23T01:00:38;11.55;;;4.70;;
8825;SDS011;4449;50.872;4.714;2024-03-23T01:03:05;9.93;;;5.40;;
8825;SDS011;4449;50.872;4.714;2024-03-23T01:05:32;9.63;;;5.50;;
8825;SDS011;4449;50.872;4.714;2024-03-23T01:07:59;9.80;;;5.10;;
8825;SDS011;4449;50.872;4.714;2024-03-23T01:10:28;12.43;;;5.35;;
8825;SDS011;4449;50.872;4.714;2024-03-23T01:12:56;9.38;;;4.90;;
8825;SDS011;4449;50.872;4.714;2024-03-23T01:15:23;11.93;;;5.32;;
8825;SDS011;4449;50.872;4.714;2024-03-23T01:17:50;10.97;;;5.63;;
8825;SDS011;4449;50.872;4.714;2024-03-23T01:20:18;5.53;;;3.92;;
8825;SDS011;4449;50.872;4.714;2024-03-23T01:22:44;8.70;;;4.80;;
8825;SDS011;4449;50.872;4.714;2024-03-23T01:25:12;11.20;;;5.80;;
8825;SDS011;4449;50.872;4.714;2024-03-23T01:27:40;11.45;;;5.35;;
8825;SDS011;4449;50.872;4.714;2024-03-23T01:30:08;11.65;;;6.43;;
8825;SDS011;4449;50.872;4.714;2024-03-23T01:32:35;15.10;;;7.10;;
8825;SDS011;4449;50.872;4.714;2024-03-23T01:35:02;12.05;;;6.45;;
8825;SDS011;4449;50.872;4.714;2024-03-23T01:37:29;11.57;;;6.97;;
8825;SDS011;4449;50.872;4.714;2024-03-23T01:39:57;14.10;;;7.22;;
8825;SDS011;4449;50.872;4.714;2024-03-23T01:42:23;14.60;;;8.23;;
8825;SDS011;4449;50.872;4.714;2024-03-23T01:44:52;14.00;;;8.35;;
8825;SDS011;4449;50.872;4.714;2024-03-23T01:47:19;13.98;;;8.50;;
8825;SDS011;4449;50.872;4.714;2024-03-23T01:49:47;16.00;;;7.73;;
8825;SDS011;4449;50.872;4.714;2024-03-23T01:52:13;14.38;;;8.38;;
8825;SDS011;4449;50.872;4.714;2024-03-23T01:54:41;18.42;;;9.20;;
8825;SDS011;4449;50.872;4.714;2024-03-23T01:57:08;18.30;;;9.38;;
8825;SDS011;4449;50.872;4.714;2024-03-23T01:59:36;18.50;;;9.48;;
8825;SDS011;4449;50.872;4.714;2024-03-23T02:02:04;14.63;;;8.10;;
8825;SDS011;4449;50.872;4.714;2024-03-23T02:04:32;16.15;;;8.98;;
8825;SDS011;4449;50.872;4.714;2024-03-23T02:06:59;11.75;;;6.75;;
8825;SDS011;4449;50.872;4.714;2024-03-23T02:09:27;16.27;;;9.57;;
8825;SDS011;4449;50.872;4.714;2024-03-23T02:11:54;13.70;;;7.88;;
8825;SDS011;4449;50.872;4.714;2024-03-23T02:14:22;13.13;;;6.97;;
8825;SDS011;4449;50.872;4.714;2024-03-23T02:16:48;11.65;;;7.13;;
8825;SDS011;4449;50.872;4.714;2024-03-23T02:19:18;12.50;;;7.40;;
8825;SDS011;4449;50.872;4.714;2024-03-23T02:21:44;11.98;;;6.93;;
8825;SDS011;4449;50.872;4.714;2024-03-23T02:24:14;10.45;;;6.90;;
8825;SDS011;4449;50.872;4.714;2024-03-23T02:26:40;10.52;;;6.63;;
8825;SDS011;4449;50.872;4.714;2024-03-23T02:29:08;12.07;;;6.87;;
8825;SDS011;4449;50.872;4.714;2024-03-23T02:31:35;10.93;;;6.60;;
8825;SDS011;4449;50.872;4.714;2024-03-23T02:34:03;11.82;;;6.82;;
8825;SDS011;4449;50.872;4.714;2024-03-23T02:36:29;15.63;;;6.93;;
8825;SDS011;4449;50.872;4.714;2024-03-23T02:38:57;13.20;;;9.10;;
8825;SDS011;4449;50.872;4.714;2024-03-23T02:41:25;13.45;;;7.60;;
8825;SDS011;4449;50.872;4.714;2024-03-23T02:43:53;11.80;;;6.68;;
8825;SDS011;4449;50.872;4.714;2024-03-23T02:46:19;9.52;;;6.35;;
8825;SDS011;4449;50.872;4.714;2024-03-23T02:48:48;11.30;;;7.40;;
8825;SDS011;4449;50.872;4.714;2024-03-23T02:51:15;10.95;;;6.78;;
8825;SDS011;4449;50.872;4.714;2024-03-23T02:53:42;13.68;;;7.88;;
8825;SDS011;4449;50.872;4.714;2024-03-23T02:56:09;12.82;;;7.47;;
8825;SDS011;4449;50.872;4.714;2024-03-23T02:58:42;14.13;;;7.90;;
8825;SDS011;4449;50.872;4.714;2024-03-23T03:01:09;12.55;;;8.30;;
8825;SDS011;4449;50.872;4.714;2024-03-23T03:03:37;14.75;;;7.80;;
8825;SDS011;4449;50.872;4.714;2024-03-23T03:06:04;12.57;;;7.75;;
8825;SDS011;4449;50.872;4.714;2024-03-23T03:08:31;13.82;;;7.63;;
8825;SDS011;4449;50.872;4.714;2024-03-23T03:10:58;13.43;;;8.10;;
8825;SDS011;4449;50.872;4.714;2024-03-23T03:13:26;15.27;;;8.75;;
8825;SDS011;4449;50.872;4.714;2024-03-23T03:15:54;15.75;;;9.15;;
8825;SDS011;4449;50.872;4.714;2024-03-23T03:18:22;14.15;;;9.07;;
8825;SDS011;4449;50.872;4.714;2024-03-23T03:20:48;15.90;;;9.18;;
8825;SDS011;4449;50.872;4.714;2024-03-23T03:23:16;17.88;;;9.65;;
8825;SDS011;4449;50.872;4.714;2024-03-23T03:25:43;13.77;;;9.33;;
8825;SDS011;4449;50.872;4.714;2024-03-23T03:28:11;16.35;;;9.30;;
8825;SDS011;4449;50.872;4.714;2024-03-23T03:30:37;13.73;;;7.03;;
8825;SDS011;4449;50.872;4.714;2024-03-23T03:33:06;12.02;;;7.00;;
8825;SDS011;4449;50.872;4.714;2024-03-23T03:35:33;13.82;;;7.10;;
8825;SDS011;4449;50.872;4.714;2024-03-23T03:38:01;16.70;;;7.40;;
8825;SDS011;4449;50.872;4.714;2024-03-23T03:40:27;11.70;;;6.13;;
8825;SDS011;4449;50.872;4.714;2024-03-23T03:42:55;12.20;;;6.15;;
8825;SDS011;4449;50.872;4.714;2024-03-23T03:45:22;13.80;;;6.65;;
8825;SDS011;4449;50.872;4.714;2024-03-23T03:47:50;11.43;;;6.03;;
8825;SDS011;4449;50.872;4.714;2024-03-23T03:50:18;13.23;;;6.95;;
8825;SDS011;4449;50.872;4.714;2024-03-23T03:52:45;19.42;;;7.00;;
8825;SDS011;4449;50.872;4.714;2024-03-23T03:55:12;14.63;;;6.78;;
8825;SDS011;4449;50.872;4.714;2024-03-23T03:57:40;16.73;;;8.20;;
8825;SDS011;4449;50.872;4.714;2024-03-23T04:00:09;15.80;;;7.38;;
8825;SDS011;4449;50.872;4.714;2024-03-23T04:02:36;13.95;;;7.55;;
8825;SDS011;4449;50.872;4.714;2024-03-23T04:05:04;13.40;;;7.13;;
8825;SDS011;4449;50.872;4.714;2024-03-23T04:07:32;17.63;;;7.38;;
8825;SDS011;4449;50.872;4.714;2024-03-23T04:10:00;15.73;;;7.82;;
8825;SDS011;4449;50.872;4.714;2024-03-23T04:12:27;13.60;;;7.43;;
8825;SDS011;4449;50.872;4.714;2024-03-23T04:14:55;15.02;;;8.20;;
8825;SDS011;4449;50.872;4.714;2024-03-23T04:17:22;18.27;;;8.40;;
8825;SDS011;4449;50.872;4.714;2024-03-23T04:19:50;14.82;;;7.78;;
8825;SDS011;4449;50.872;4.714;2024-03-23T04:22:17;14.52;;;7.93;;
8825;SDS011;4449;50.872;4.714;2024-03-23T04:24:47;15.27;;;8.88;;
8825;SDS011;4449;50.872;4.714;2024-03-23T04:27:13;19.40;;;9.02;;
8825;SDS011;4449;50.872;4.714;2024-03-23T04:29:41;21.57;;;13.23;;
8825;SDS011;4449;50.872;4.714;2024-03-23T04:32:08;15.85;;;9.07;;
8825;SDS011;4449;50.872;4.714;2024-03-23T04:34:35;14.88;;;9.02;;
8825;SDS011;4449;50.872;4.714;2024-03-23T04:37:02;18.10;;;9.97;;
8825;SDS011;4449;50.872;4.714;2024-03-23T04:39:30;16.70;;;9.70;;
8825;SDS011;4449;50.872;4.714;2024-03-23T04:41:59;17.13;;;10.10;;
8825;SDS011;4449;50.872;4.714;2024-03-23T04:44:26;14.80;;;9.75;;
8825;SDS011;4449;50.872;4.714;2024-03-23T04:46:54;15.20;;;9.48;;
8825;SDS011;4449;50.872;4.714;2024-03-23T04:49:22;15.40;;;9.88;;
8825;SDS011;4449;50.872;4.714;2024-03-23T04:51:49;17.98;;;10.32;;
8825;SDS011;4449;50.872;4.714;2024-03-23T04:54:17;17.58;;;10.02;;
8825;SDS011;4449;50.872;4.714;2024-03-23T04:56:45;17.35;;;10.25;;
8825;SDS011;4449;50.872;4.714;2024-03-23T04:59:14;17.77;;;10.52;;
8825;SDS011;4449;50.872;4.714;2024-03-23T05:01:41;17.00;;;10.55;;
8825;SDS011;4449;50.872;4.714;2024-03-23T05:04:09;17.13;;;10.23;;
8825;SDS011;4449;50.872;4.714;2024-03-23T05:06:35;15.07;;;9.55;;
8825;SDS011;4449;50.872;4.714;2024-03-23T05:09:03;16.13;;;9.52;;
8825;SDS011;4449;50.872;4.714;2024-03-23T05:11:32;17.17;;;9.85;;
8825;SDS011;4449;50.872;4.714;2024-03-23T05:14:00;14.38;;;8.88;;
8825;SDS011;4449;50.872;4.714;2024-03-23T05:16:29;14.30;;;8.50;;
8825;SDS011;4449;50.872;4.714;2024-03-23T05:18:57;15.80;;;8.70;;
8825;SDS011;4449;50.872;4.714;2024-03-23T05:21:24;13.68;;;8.48;;
8825;SDS011;4449;50.872;4.714;2024-03-23T05:23:53;14.80;;;7.43;;
8825;SDS011;4449;50.872;4.714;2024-03-23T05:26:19;13.45;;;7.40;;
8825;SDS011;4449;50.872;4.714;2024-03-23T05:28:47;13.68;;;7.32;;
8825;SDS011;4449;50.872;4.714;2024-03-23T05:31:22;12.63;;;6.88;;
8825;SDS011;4449;50.872;4.714;2024-03-23T05:33:51;12.25;;;6.30;;
8825;SDS011;4449;50.872;4.714;2024-03-23T05:36:18;11.15;;;6.03;;
8825;SDS011;4449;50.872;4.714;2024-03-23T05:38:46;10.52;;;6.13;;
8825;SDS011;4449;50.872;4.714;2024-03-23T05:41:12;10.52;;;6.05;;
8825;SDS011;4449;50.872;4.714;2024-03-23T05:43:40;13.67;;;6.60;;
8825;SDS011;4449;50.872;4.714;2024-03-23T05:46:07;14.65;;;7.30;;
8825;SDS011;4449;50.872;4.714;2024-03-23T05:48:34;12.65;;;7.03;;
8825;SDS011;4449;50.872;4.714;2024-03-23T05:51:03;12.65;;;6.85;;
8825;SDS011;4449;50.872;4.714;2024-03-23T05:53:30;11.77;;;7.30;;
8825;SDS011;4449;50.872;4.714;2024-03-23T05:56:01;14.48;;;7.80;;
8825;SDS011;4449;50.872;4.714;2024-03-23T05:58:30;14.20;;;7.50;;
8825;SDS011;4449;50.872;4.714;2024-03-23T06:00:58;14.88;;;8.25;;
8825;SDS011;4449;50.872;4.714;2024-03-23T06:03:26;12.67;;;7.57;;
8825;SDS011;4449;50.872;4.714;2024-03-23T06:05:54;15.27;;;7.97;;
8825;SDS011;4449;50.872;4.714;2024-03-23T06:08:22;13.88;;;7.93;;
8825;SDS011;4449;50.872;4.714;2024-03-23T06:10:50;14.33;;;8.40;;
8825;SDS011;4449;50.872;4.714;2024-03-23T06:13:17;15.13;;;8.10;;
8825;SDS011;4449;50.872;4.714;2024-03-23T06:15:45;11.25;;;7.68;;
8825;SDS011;4449;50.872;4.714;2024-03-23T06:18:12;13.02;;;8.00;;
8825;SDS011;4449;50.872;4.714;2024-03-23T06:20:39;14.82;;;7.35;;
8825;SDS011;4449;50.872;4.714;2024-03-23T06:23:06;13.88;;;7.55;;
8825;SDS011;4449;50.872;4.714;2024-03-23T06:25:35;12.38;;;7.43;;
8825;SDS011;4449;50.872;4.714;2024-03-23T06:28:02;14.38;;;7.43;;
8825;SDS011;4449;50.872;4.714;2024-03-23T06:30:30;13.68;;;7.05;;
8825;SDS011;4449;50.872;4.714;2024-03-23T06:32:57;11.52;;;6.85;;
8825;SDS011;4449;50.872;4.714;2024-03-23T06:35:25;13.23;;;7.30;;
8825;SDS011;4449;50.872;4.714;2024-03-23T06:37:52;12.13;;;7.30;;
8825;SDS011;4449;50.872;4.714;2024-03-23T06:40:20;15.05;;;7.22;;
8825;SDS011;4449;50.872;4.714;2024-03-23T06:42:48;14.48;;;6.70;;
8825;SDS011;4449;50.872;4.714;2024-03-23T06:45:16;12.07;;;6.32;;
8825;SDS011;4449;50.872;4.714;2024-03-23T06:47:48;9.25;;;5.80;;
8825;SDS011;4449;50.872;4.714;2024-03-23T06:50:16;11.10;;;5.47;;
8825;SDS011;4449;50.872;4.714;2024-03-23T06:52:43;12.73;;;6.07;;
8825;SDS011;4449;50.872;4.714;2024-03-23T06:55:11;14.48;;;6.30;;
8825;SDS011;4449;50.872;4.714;2024-03-23T06:57:37;10.43;;;5.60;;
8825;SDS011;4449;50.872;4.714;2024-03-23T07:00:07;12.43;;;5.80;;
8825;SDS011;4449;50.872;4.714;2024-03-23T07:02:35;10.50;;;4.78;;
8825;SDS011;4449;50.872;4.714;2024-03-23T07:05:03;11.40;;;5.35;;
8825;SDS011;4449;50.872;4.714;2024-03-23T07:07:30;11.60;;;5.35;;
8825;SDS011;4449;50.872;4.714;2024-03-23T07:09:58;14.38;;;4.97;;
8825;SDS011;4449;50.872;4.714;2024-03-23T07:12:24;11.80;;;4.82;;
8825;SDS011;4449;50.872;4.714;2024-03-23T07:14:52;10.25;;;4.35;;
8825;SDS011;4449;50.872;4.714;2024-03-23T07:17:20;10.82;;;4.78;;
8825;SDS011;4449;50.872;4.714;2024-03-23T07:19:48;12.90;;;4.50;;
8825;SDS011;4449;50.872;4.714;2024-03-23T07:22:14;12.93;;;4.73;;
8825;SDS011;4449;50.872;4.714;2024-03-23T07:24:42;11.05;;;4.75;;
8825;SDS011;4449;50.872;4.714;2024-03-23T07:27:08;11.57;;;4.20;;
8825;SDS011;4449;50.872;4.714;2024-03-23T07:29:36;11.80;;;4.85;;
8825;SDS011;4449;50.872;4.714;2024-03-23T07:32:04;9.85;;;4.30;;
8825;SDS011;4449;50.872;4.714;2024-03-23T07:34:32;10.98;;;4.82;;
8825;SDS011;4449;50.872;4.714;2024-03-23T07:37:00;9.38;;;4.80;;
8825;SDS011;4449;50.872;4.714;2024-03-23T07:39:26;8.02;;;3.40;;
8825;SDS011;4449;50.872;4.714;2024-03-23T07:41:54;8.52;;;3.92;;
8825;SDS011;4449;50.872;4.714;2024-03-23T07:44:21;6.20;;;3.30;;
8825;SDS011;4449;50.872;4.714;2024-03-23T07:46:48;8.07;;;3.50;;
8825;SDS011;4449;50.872;4.714;2024-03-23T07:49:15;6.95;;;3.40;;
8825;SDS011;4449;50.872;4.714;2024-03-23T07:51:44;5.68;;;3.20;;
8825;SDS011;4449;50.872;4.714;2024-03-23T07:54:11;6.32;;;3.25;;
8825;SDS011;4449;50.872;4.714;2024-03-23T07:56:38;4.82;;;3.00;;
8825;SDS011;4449;50.872;4.714;2024-03-23T07:59:05;5.45;;;2.85;;
8825;SDS011;4449;50.872;4.714;2024-03-23T08:01:33;5.25;;;2.55;;
8825;SDS011;4449;50.872;4.714;2024-03-23T08:03:59;5.77;;;2.73;;
8825;SDS011;4449;50.872;4.714;2024-03-23T08:06:27;4.22;;;2.70;;
8825;SDS011;4449;50.872;4.714;2024-03-23T08:08:56;6.25;;;3.90;;
8825;SDS011;4449;50.872;4.714;2024-03-23T08:11:26;7.07;;;3.60;;
8825;SDS011;4449;50.872;4.714;2024-03-23T08:13:53;6.05;;;3.90;;
8825;SDS011;4449;50.872;4.714;2024-03-23T08:16:21;7.20;;;3.88;;
8825;SDS011;4449;50.872;4.714;2024-03-23T08:18:48;8.10;;;4.38;;
8825;SDS011;4449;50.872;4.714;2024-03-23T08:21:15;8.50;;;4.07;;
8825;SDS011;4449;50.872;4.714;2024-03-23T08:23:42;10.65;;;4.30;;
8825;SDS011;4449;50.872;4.714;2024-03-23T08:26:11;8.65;;;4.03;;
8825;SDS011;4449;50.872;4.714;2024-03-23T08:28:38;12.93;;;4.40;;
8825;SDS011;4449;50.872;4.714;2024-03-23T08:31:06;11.32;;;4.13;;
8825;SDS011;4449;50.872;4.714;2024-03-23T08:33:33;11.20;;;4.50;;
8825;SDS011;4449;50.872;4.714;2024-03-23T08:36:01;11.68;;;4.32;;
8825;SDS011;4449;50.872;4.714;2024-03-23T08:38:28;9.88;;;4.10;;
8825;SDS011;4449;50.872;4.714;2024-03-23T08:40:56;11.27;;;4.63;;
8825;SDS011;4449;50.872;4.714;2024-03-23T08:43:24;7.78;;;3.60;;
8825;SDS011;4449;50.872;4.714;2024-03-23T08:45:52;12.00;;;4.13;;
8825;SDS011;4449;50.872;4.714;2024-03-23T08:48:19;9.38;;;3.70;;
8825;SDS011;4449;50.872;4.714;2024-03-23T08:50:47;9.95;;;3.92;;
8825;SDS011;4449;50.872;4.714;2024-03-23T08:53:14;8.15;;;3.47;;
8825;SDS011;4449;50.872;4.714;2024-03-23T08:55:42;11.63;;;4.00;;
8825;SDS011;4449;50.872;4.714;2024-03-23T08:58:08;10.50;;;4.00;;
8825;SDS011;4449;50.872;4.714;2024-03-23T09:00:39;9.48;;;4.20;;
8825;SDS011;4449;50.872;4.714;2024-03-23T09:03:06;8.20;;;3.60;;
8825;SDS011;4449;50.872;4.714;2024-03-23T09:05:33;9.43;;;3.90;;
8825;SDS011;4449;50.872;4.714;2024-03-23T09:08:05;9.70;;;3.80;;
8825;SDS011;4449;50.872;4.714;2024-03-23T09:10:35;9.20;;;3.90;;
8825;SDS011;4449;50.872;4.714;2024-03-23T09:13:02;8.05;;;3.60;;
8825;SDS011;4449;50.872;4.714;2024-03-23T09:15:30;9.57;;;4.20;;
8825;SDS011;4449;50.872;4.714;2024-03-23T09:17:59;8.98;;;4.05;;
8825;SDS011;4449;50.872;4.714;2024-03-23T09:20:27;8.40;;;3.90;;
8825;SDS011;4449;50.872;4.714;2024-03-23T09:34:27;8.75;;;3.47;;
8825;SDS011;4449;50.872;4.714;2024-03-23T09:36:55;7.93;;;3.55;;
8825;SDS011;4449;50.872;4.714;2024-03-23T09:39:22;7.50;;;3.53;;
8825;SDS011;4449;50.872;4.714;2024-03-23T09:41:49;6.30;;;3.10;;
8825;SDS011;4449;50.872;4.714;2024-03-23T09:44:16;6.95;;;3.50;;
8825;SDS011;4449;50.872;4.714;2024-03-23T09:46:44;6.70;;;3.10;;
8825;SDS011;4449;50.872;4.714;2024-03-23T09:49:10;8.60;;;3.40;;
8825;SDS011;4449;50.872;4.714;2024-03-23T09:51:40;6.63;;;3.10;;
8825;SDS011;4449;50.872;4.714;2024-03-23T09:54:06;6.28;;;3.28;;
8825;SDS011;4449;50.872;4.714;2024-03-23T09:56:34;6.90;;;2.70;;
8825;SDS011;4449;50.872;4.714;2024-03-23T09:59:01;6.83;;;3.10;;
8825;SDS011;4449;50.872;4.714;2024-03-23T10:01:29;8.00;;;3.42;;
8825;SDS011;4449;50.872;4.714;2024-03-23T10:03:56;9.65;;;3.63;;
8825;SDS011;4449;50.872;4.714;2024-03-23T10:06:23;7.15;;;2.97;;
8825;SDS011;4449;50.872;4.714;2024-03-23T10:08:52;6.43;;;3.20;;
8825;SDS011;4449;50.872;4.714;2024-03-23T10:11:20;5.43;;;3.08;;
8825;SDS011;4449;50.872;4.714;2024-03-23T10:13:47;6.72;;;3.45;;
8825;SDS011;4449;50.872;4.714;2024-03-23T10:16:21;5.22;;;3.10;;
8825;SDS011;4449;50.872;4.714;2024-03-23T10:18:48;8.55;;;3.60;;
8825;SDS011;4449;50.872;4.714;2024-03-23T10:21:16;6.50;;;3.22;;
8825;SDS011;4449;50.872;4.714;2024-03-23T10:23:43;6.35;;;3.00;;
8825;SDS011;4449;50.872;4.714;2024-03-23T10:26:19;6.82;;;2.97;;
8825;SDS011;4449;50.872;4.714;2024-03-23T10:31:36;4.53;;;2.60;;
8825;SDS011;4449;50.872;4.714;2024-03-23T10:34:03;6.60;;;2.72;;
8825;SDS011;4449;50.872;4.714;2024-03-23T10:36:30;5.40;;;3.03;;
8825;SDS011;4449;50.872;4.714;2024-03-23T10:38:57;5.40;;;2.92;;
8825;SDS011;4449;50.872;4.714;2024-03-23T10:41:27;4.95;;;2.83;;
8825;SDS011;4449;50.872;4.714;2024-03-23T10:43:55;5.97;;;3.17;;
8825;SDS011;4449;50.872;4.714;2024-03-23T10:46:23;6.35;;;3.00;;
8825;SDS011;4449;50.872;4.714;2024-03-23T10:48:49;7.40;;;2.97;;
8825;SDS011;4449;50.872;4.714;2024-03-23T10:51:17;3.93;;;2.80;;
8825;SDS011;4449;50.872;4.714;2024-03-23T10:53:44;5.72;;;2.83;;
8825;SDS011;4449;50.872;4.714;2024-03-23T10:56:12;3.83;;;2.43;;
8825;SDS011;4449;50.872;4.714;2024-03-23T10:58:42;4.47;;;2.63;;
8825;SDS011;4449;50.872;4.714;2024-03-23T11:01:11;4.90;;;2.58;;
8825;SDS011;4449;50.872;4.714;2024-03-23T11:03:38;5.40;;;2.75;;
8825;SDS011;4449;50.872;4.714;2024-03-23T11:06:07;5.63;;;2.70;;
8825;SDS011;4449;50.872;4.714;2024-03-23T11:08:34;5.50;;;2.80;;
8825;SDS011;4449;50.872;4.714;2024-03-23T11:11:14;5.78;;;2.50;;
8825;SDS011;4449;50.872;4.714;2024-03-23T11:13:42;7.03;;;2.92;;
8825;SDS011;4449;50.872;4.714;2024-03-23T11:16:14;6.45;;;2.72;;
8825;SDS011;4449;50.872;4.714;2024-03-23T11:18:40;5.03;;;2.50;;
8825;SDS011;4449;50.872;4.714;2024-03-23T12:19:36;2.47;;;2.03;;
8825;SDS011;4449;50.872;4.714;2024-03-23T12:22:04;3.10;;;2.10;;
8825;SDS011;4449;50.872;4.714;2024-03-23T12:24:31;2.92;;;1.73;;
8825;SDS011;4449;50.872;4.714;2024-03-23T12:27:00;5.47;;;2.40;;
8825;SDS011;4449;50.872;4.714;2024-03-23T12:29:28;2.45;;;2.03;;
8825;SDS011;4449;50.872;4.714;2024-03-23T12:31:58;4.57;;;2.20;;
8825;SDS011;4449;50.872;4.714;2024-03-23T12:34:27;3.47;;;2.03;;
8825;SDS011;4449;50.872;4.714;2024-03-23T12:36:57;4.68;;;2.10;;
8825;SDS011;4449;50.872;4.714;2024-03-23T12:39:23;4.25;;;2.30;;
8825;SDS011;4449;50.872;4.714;2024-03-23T12:41:51;3.45;;;2.20;;
8825;SDS011;4449;50.872;4.714;2024-03-23T12:44:18;7.87;;;2.30;;
8825;SDS011;4449;50.872;4.714;2024-03-23T12:46:46;3.88;;;2.28;;
8825;SDS011;4449;50.872;4.714;2024-03-23T12:49:12;3.40;;;2.15;;
8825;SDS011;4449;50.872;4.714;2024-03-23T12:51:41;5.25;;;2.38;;
8825;SDS011;4449;50.872;4.714;2024-03-23T12:54:14;4.75;;;2.00;;
8825;SDS011;4449;50.872;4.714;2024-03-23T12:56:41;2.53;;;1.95;;
8825;SDS011;4449;50.872;4.714;2024-03-23T12:59:08;2.50;;;2.00;;
8825;SDS011;4449;50.872;4.714;2024-03-23T13:01:36;4.57;;;1.90;;
8825;SDS011;4449;50.872;4.714;2024-03-23T13:04:03;3.17;;;1.90;;
8825;SDS011;4449;50.872;4.714;2024-03-23T13:06:31;2.17;;;1.80;;
8825;SDS011;4449;50.872;4.714;2024-03-23T13:08:59;3.63;;;2.25;;
8825;SDS011;4449;50.872;4.714;2024-03-23T13:11:28;3.85;;;1.90;;
8825;SDS011;4449;50.872;4.714;2024-03-23T13:13:55;6.15;;;2.17;;
8825;SDS011;4449;50.872;4.714;2024-03-23T13:16:23;3.07;;;2.10;;
8825;SDS011;4449;50.872;4.714;2024-03-23T13:18:50;6.32;;;2.42;;
8825;SDS011;4449;50.872;4.714;2024-03-23T13:21:18;3.05;;;2.05;;
8825;SDS011;4449;50.872;4.714;2024-03-23T13:23:46;4.03;;;2.20;;
8825;SDS011;4449;50.872;4.714;2024-03-23T13:26:15;3.80;;;2.10;;
8825;SDS011;4449;50.872;4.714;2024-03-23T13:28:43;2.67;;;1.80;;
8825;SDS011;4449;50.872;4.714;2024-03-23T13:31:11;3.30;;;2.20;;
8825;SDS011;4449;50.872;4.714;2024-03-23T13:33:37;3.55;;;2.17;;
8825;SDS011;4449;50.872;4.714;2024-03-23T13:36:07;2.80;;;2.08;;
8825;SDS011;4449;50.872;4.714;2024-03-23T13:38:34;3.67;;;1.80;;
8825;SDS011;4449;50.872;4.714;2024-03-23T13:41:01;2.05;;;1.75;;
8825;SDS011;4449;50.872;4.714;2024-03-23T13:43:30;3.78;;;2.10;;
8825;SDS011;4449;50.872;4.714;2024-03-23T13:45:59;3.10;;;2.10;;
8825;SDS011;4449;50.872;4.714;2024-03-23T13:48:26;4.53;;;2.30;;
8825;SDS011;4449;50.872;4.714;2024-03-23T13:50:57;1.50;;;1.40;;
8825;SDS011;4449;50.872;4.714;2024-03-23T13:53:24;1.40;;;1.30;;
8825;SDS011;4449;50.872;4.714;2024-03-23T13:55:52;3.15;;;1.50;;
8825;SDS011;4449;50.872;4.714;2024-03-23T13:58:19;4.65;;;1.83;;
8825;SDS011;4449;50.872;4.714;2024-03-23T14:00:47;3.40;;;1.83;;
8825;SDS011;4449;50.872;4.714;2024-03-23T14:03:15;5.07;;;1.80;;
8825;SDS011;4449;50.872;4.714;2024-03-23T14:05:44;3.60;;;2.00;;
8825;SDS011;4449;50.872;4.714;2024-03-23T14:08:12;3.58;;;2.10;;
8825;SDS011;4449;50.872;4.714;2024-03-23T14:10:40;5.22;;;1.90;;
8825;SDS011;4449;50.872;4.714;2024-03-23T14:13:07;4.17;;;1.83;;
8825;SDS011;4449;50.872;4.714;2024-03-23T14:15:35;3.10;;;2.03;;
8825;SDS011;4449;50.872;4.714;2024-03-23T14:18:02;3.28;;;1.90;;
8825;SDS011;4449;50.872;4.714;2024-03-23T14:20:31;2.40;;;1.80;;
8825;SDS011;4449;50.872;4.714;2024-03-23T14:22:58;1.95;;;1.80;;
8825;SDS011;4449;50.872;4.714;2024-03-23T14:25:26;4.15;;;2.15;;
8825;SDS011;4449;50.872;4.714;2024-03-23T14:27:54;2.77;;;1.83;;
8825;SDS011;4449;50.872;4.714;2024-03-23T14:30:23;3.33;;;2.08;;
8825;SDS011;4449;50.872;4.714;2024-03-23T14:32:50;6.30;;;2.65;;
8825;SDS011;4449;50.872;4.714;2024-03-23T14:35:17;5.65;;;2.72;;
8825;SDS011;4449;50.872;4.714;2024-03-23T14:37:46;6.57;;;3.05;;
8825;SDS011;4449;50.872;4.714;2024-03-23T14:40:13;3.80;;;1.95;;
8825;SDS011;4449;50.872;4.714;2024-03-23T14:42:40;4.67;;;2.13;;
8825;SDS011;4449;50.872;4.714;2024-03-23T14:45:08;5.70;;;2.28;;
8825;SDS011;4449;50.872;4.714;2024-03-23T14:47:35;3.30;;;2.20;;
8825;SDS011;4449;50.872;4.714;2024-03-23T14:50:02;4.78;;;2.33;;
8825;SDS011;4449;50.872;4.714;2024-03-23T14:52:29;3.42;;;2.38;;
8825;SDS011;4449;50.872;4.714;2024-03-23T14:54:58;2.25;;;1.90;;
8825;SDS011;4449;50.872;4.714;2024-03-23T14:57:25;3.00;;;1.90;;
8825;SDS011;4449;50.872;4.714;2024-03-23T14:59:54;4.50;;;2.40;;
8825;SDS011;4449;50.872;4.714;2024-03-23T15:02:21;5.38;;;2.20;;
8825;SDS011;4449;50.872;4.714;2024-03-23T15:04:49;3.88;;;2.47;;
8825;SDS011;4449;50.872;4.714;2024-03-23T15:07:16;3.85;;;2.50;;
8825;SDS011;4449;50.872;4.714;2024-03-23T15:09:43;3.15;;;2.25;;
8825;SDS011;4449;50.872;4.714;2024-03-23T15:12:11;4.25;;;2.30;;
8825;SDS011;4449;50.872;4.714;2024-03-23T15:14:39;5.82;;;2.20;;
8825;SDS011;4449;50.872;4.714;2024-03-23T15:17:06;3.33;;;2.20;;
8825;SDS011;4449;50.872;4.714;2024-03-23T15:19:34;4.97;;;2.40;;
8825;SDS011;4449;50.872;4.714;2024-03-23T15:22:01;4.83;;;2.33;;
8825;SDS011;4449;50.872;4.714;2024-03-23T15:24:29;4.78;;;2.60;;
8825;SDS011;4449;50.872;4.714;2024-03-23T15:26:56;4.30;;;2.50;;
8825;SDS011;4449;50.872;4.714;2024-03-23T15:29:25;3.38;;;2.10;;
8825;SDS011;4449;50.872;4.714;2024-03-23T15:31:52;5.00;;;2.03;;
8825;SDS011;4449;50.872;4.714;2024-03-23T15:50:04;3.65;;;2.38;;
8825;SDS011;4449;50.872;4.714;2024-03-23T15:52:34;4.32;;;2.25;;
8825;SDS011;4449;50.872;4.714;2024-03-23T15:55:01;5.40;;;2.20;;
8825;SDS011;4449;50.872;4.714;2024-03-23T15:57:32;7.60;;;2.45;;
8825;SDS011;4449;50.872;4.714;2024-03-23T15:59:59;1.98;;;1.80;;
8825;SDS011;4449;50.872;4.714;2024-03-23T16:02:26;5.57;;;2.70;;
8825;SDS011;4449;50.872;4.714;2024-03-23T16:04:53;5.35;;;2.47;;
8825;SDS011;4449;50.872;4.714;2024-03-23T16:07:24;3.95;;;2.38;;
8825;SDS011;4449;50.872;4.714;2024-03-23T16:09:51;4.10;;;2.20;;
8825;SDS011;4449;50.872;4.714;2024-03-23T16:12:18;4.22;;;2.30;;
8825;SDS011;4449;50.872;4.714;2024-03-23T16:14:45;4.13;;;2.15;;
8825;SDS011;4449;50.872;4.714;2024-03-23T16:17:13;6.15;;;2.72;;
8825;SDS011;4449;50.872;4.714;2024-03-23T16:19:39;4.73;;;2.30;;
8825;SDS011;4449;50.872;4.714;2024-03-23T16:22:08;5.90;;;2.40;;
8825;SDS011;4449;50.872;4.714;2024-03-23T16:24:36;4.28;;;2.50;;
8825;SDS011;4449;50.872;4.714;2024-03-23T16:27:04;3.90;;;2.33;;
8825;SDS011;4449;50.872;4.714;2024-03-23T16:29:30;6.13;;;3.10;;
8825;SDS011;4449;50.872;4.714;2024-03-23T16:31:58;5.95;;;2.70;;
8825;SDS011;4449;50.872;4.714;2024-03-23T16:34:25;3.78;;;2.42;;
8825;SDS011;4449;50.872;4.714;2024-03-23T16:36:52;4.40;;;2.47;;
8825;SDS011;4449;50.872;4.714;2024-03-23T16:39:19;4.22;;;2.40;;
8825;SDS011;4449;50.872;4.714;2024-03-23T16:41:48;3.80;;;2.30;;
8825;SDS011;4449;50.872;4.714;2024-03-23T16:44:14;4.10;;;2.33;;
8825;SDS011;4449;50.872;4.714;2024-03-23T16:46:42;5.43;;;3.20;;
8825;SDS011;4449;50.872;4.714;2024-03-23T16:49:09;4.22;;;2.97;;
8825;SDS011;4449;50.872;4.714;2024-03-23T16:51:37;5.65;;;2.80;;
8825;SDS011;4449;50.872;4.714;2024-03-23T16:54:04;6.13;;;3.10;;
8825;SDS011;4449;50.872;4.714;2024-03-23T16:56:32;5.00;;;3.03;;
8825;SDS011;4449;50.872;4.714;2024-03-23T16:59:00;4.80;;;2.90;;
8825;SDS011;4449;50.872;4.714;2024-03-23T17:01:30;3.67;;;2.80;;
8825;SDS011;4449;50.872;4.714;2024-03-23T17:03:56;3.80;;;2.60;;
8825;SDS011;4449;50.872;4.714;2024-03-23T17:06:26;4.85;;;2.85;;
8825;SDS011;4449;50.872;4.714;2024-03-23T17:08:52;4.97;;;2.90;;
8825;SDS011;4449;50.872;4.714;2024-03-23T17:11:20;5.82;;;2.80;;
8825;SDS011;4449;50.872;4.714;2024-03-23T17:13:49;6.03;;;3.57;;
8825;SDS011;4449;50.872;4.714;2024-03-23T17:16:20;5.90;;;3.50;;
8825;SDS011;4449;50.872;4.714;2024-03-23T17:18:47;5.97;;;3.30;;
8825;SDS011;4449;50.872;4.714;2024-03-23T17:21:17;4.95;;;2.85;;
8825;SDS011;4449;50.872;4.714;2024-03-23T17:23:43;5.35;;;3.13;;
8825;SDS011;4449;50.872;4.714;2024-03-23T17:26:11;5.40;;;2.97;;
8825;SDS011;4449;50.872;4.714;2024-03-23T17:28:38;6.38;;;3.45;;
8825;SDS011;4449;50.872;4.714;2024-03-23T17:31:06;5.15;;;3.28;;
8825;SDS011;4449;50.872;4.714;2024-03-23T17:33:42;4.30;;;3.00;;